Time;durP1;ratioP1;P1;durP2;ratioP2;P2;SDS_P1;SDS_P2;PMS_P1;PMS_P2;Temp;Humidity;BMP_temperature;BMP_pressure;BME280_temperature;BME280_humidity;BME280_pressure;Samples;Min_cycle;Max_cycle;Signal;HPM_P1;HPM_P2
2023/06/14 00:01:14;;;;;;;7.05;6.35;;;;;;;;;;5114187;28;20055;-60
2023/06/14 00:03:41;;;;;;;7.63;6.55;;;;;;;;;;5113423;28;20472;-60
2023/06/14 00:06:08;;;;;;;6.90;6.30;;;;;;;;;;5115587;27;20058;-60
2023/06/14 00:08:35;;;;;;;8.13;6.60;;;;;;;;;;5115177;28;20059;-59
2023/06/14 00:11:03;;;;;;;8.77;7.05;;;;;;;;;;5115982;28;20047;-62
2023/06/14 00:13:30;;;;;;;8.40;7.15;;;;;;;;;;5115578;28;20062;-60
2023/06/14 00:15:57;;;;;;;8.15;7.13;;;;;;;;;;5115984;28;20040;-60
2023/06/14 00:18:24;;;;;;;8.35;6.68;;;;;;;;;;5131107;27;20505;-60
2023/06/14 00:20:52;;;;;;;9.85;7.32;;;;;;;;;;5116394;28;20475;-60
2023/06/14 00:23:19;;;;;;;8.13;7.28;;;;;;;;;;5115544;28;20058;-59
2023/06/14 00:25:46;;;;;;;7.93;7.05;;;;;;;;;;5115765;28;20047;-60
2023/06/14 00:28:14;;;;;;;7.82;7.03;;;;;;;;;;5114578;27;20056;-60
2023/06/14 00:30:41;;;;;;;9.57;8.02;;;;;;;;;;5115743;28;20052;-60
2023/06/14 00:33:07;;;;;;;8.77;7.57;;;;;;;;;;5115978;28;20063;-60
2023/06/14 00:35:34;;;;;;;9.40;7.22;;;;;;;;;;5113778;27;20059;-60
2023/06/14 00:38:01;;;;;;;9.50;6.38;;;;;;;;;;5115317;28;20047;-60
2023/06/14 00:40:28;;;;;;;7.80;6.35;;;;;;;;;;5114886;28;20461;-60
2023/06/14 00:42:55;;;;;;;7.80;6.85;;;;;;;;;;5115056;28;20056;-60
2023/06/14 00:45:23;;;;;;;8.57;7.10;;;;;;;;;;5115957;28;20415;-60
2023/06/14 00:47:52;;;;;;;9.45;7.60;;;;;;;;;;5114931;28;20059;-60
2023/06/14 00:50:19;;;;;;;8.48;7.68;;;;;;;;;;5113602;27;20052;-59
2023/06/14 00:52:46;;;;;;;7.38;6.55;;;;;;;;;;5114957;28;20056;-60
2023/06/14 00:55:13;;;;;;;7.82;7.03;;;;;;;;;;5115542;28;20059;-60
2023/06/14 00:57:40;;;;;;;8.30;7.50;;;;;;;;;;5114133;28;20058;-60
2023/06/14 01:00:09;;;;;;;8.50;7.38;;;;;;;;;;5114527;28;20051;-60
2023/06/14 01:02:37;;;;;;;13.20;8.13;;;;;;;;;;5114859;28;20056;-61
2023/06/14 01:05:05;;;;;;;8.93;7.30;;;;;;;;;;5113847;28;20051;-60
2023/06/14 01:07:40;;;;;;;11.20;6.65;;;;;;;;;;5115108;28;20059;-60
2023/06/14 01:10:13;;;;;;;10.55;7.68;;;;;;;;;;5115042;28;20051;-60
2023/06/14 01:12:45;;;;;;;10.20;7.60;;;;;;;;;;5114807;28;20058;-60
2023/06/14 01:15:13;;;;;;;7.90;7.10;;;;;;;;;;5113574;28;20054;-60
2023/06/14 01:17:43;;;;;;;9.60;7.93;;;;;;;;;;5114841;28;20043;-60
2023/06/14 01:20:14;;;;;;;10.30;7.93;;;;;;;;;;5113536;27;20045;-60
2023/06/14 01:22:48;;;;;;;8.52;7.65;;;;;;;;;;5114323;28;20048;-60
2023/06/14 01:25:16;;;;;;;8.82;7.00;;;;;;;;;;5113784;28;20063;-60
2023/06/14 01:27:43;;;;;;;8.77;7.03;;;;;;;;;;5114714;28;20043;-60
2023/06/14 01:30:11;;;;;;;8.80;7.18;;;;;;;;;;5114911;28;20051;-60
2023/06/14 01:32:38;;;;;;;7.50;6.80;;;;;;;;;;5114313;28;20049;-60
2023/06/14 01:35:05;;;;;;;7.50;6.70;;;;;;;;;;5117425;27;20051;-60
2023/06/14 01:37:32;;;;;;;9.25;7.63;;;;;;;;;;5114324;28;20404;-60
2023/06/14 01:40:01;;;;;;;7.80;7.00;;;;;;;;;;5114549;28;20400;-60
2023/06/14 01:42:28;;;;;;;10.45;7.72;;;;;;;;;;5114422;28;20059;-60
2023/06/14 01:44:55;;;;;;;8.07;6.88;;;;;;;;;;5113817;28;20055;-60
2023/06/14 01:47:22;;;;;;;8.32;6.97;;;;;;;;;;5114399;28;20047;-61
2023/06/14 01:49:49;;;;;;;7.53;6.65;;;;;;;;;;5112059;27;20058;-60
2023/06/14 01:52:16;;;;;;;8.52;7.35;;;;;;;;;;5113245;28;20074;-60
2023/06/14 01:54:43;;;;;;;11.93;7.78;;;;;;;;;;5113421;28;20066;-60
2023/06/14 01:57:11;;;;;;;8.65;7.85;;;;;;;;;;5131498;27;20054;-61
2023/06/14 01:59:38;;;;;;;7.00;6.28;;;;;;;;;;5134532;27;20051;-60
2023/06/14 02:02:05;;;;;;;7.50;6.68;;;;;;;;;;5130875;27;20052;-60
2023/06/14 02:04:32;;;;;;;9.50;7.20;;;;;;;;;;5112742;28;20047;-60
2023/06/14 02:06:59;;;;;;;9.02;6.75;;;;;;;;;;5113881;28;20071;-60
2023/06/14 02:09:25;;;;;;;9.82;7.50;;;;;;;;;;5112821;28;20058;-60
2023/06/14 02:11:52;;;;;;;7.35;6.53;;;;;;;;;;5113068;28;20055;-60
2023/06/14 02:14:21;;;;;;;6.93;6.28;;;;;;;;;;5113468;28;20051;-60
2023/06/14 02:16:49;;;;;;;8.18;6.38;;;;;;;;;;5113481;28;20047;-60
2023/06/14 02:19:16;;;;;;;7.75;6.95;;;;;;;;;;5112251;28;20047;-60
2023/06/14 02:21:43;;;;;;;11.38;7.00;;;;;;;;;;5113527;28;20056;-60
2023/06/14 02:24:10;;;;;;;10.15;6.75;;;;;;;;;;5114328;27;20130;-60
2023/06/14 02:26:37;;;;;;;8.23;6.13;;;;;;;;;;5134063;27;20411;-60
2023/06/14 02:29:05;;;;;;;7.30;6.60;;;;;;;;;;5122617;27;20400;-60
2023/06/14 02:31:33;;;;;;;6.90;6.15;;;;;;;;;;5113406;28;20051;-60
2023/06/14 02:34:00;;;;;;;8.55;7.05;;;;;;;;;;5112299;27;20076;-60
2023/06/14 02:36:27;;;;;;;7.65;6.53;;;;;;;;;;5112920;28;20047;-60
2023/06/14 02:38:54;;;;;;;7.47;6.53;;;;;;;;;;5113041;28;20062;-60
2023/06/14 02:41:21;;;;;;;7.63;5.97;;;;;;;;;;5113317;28;20059;-60
2023/06/14 02:43:47;;;;;;;8.73;7.00;;;;;;;;;;5113335;28;20051;-60
2023/06/14 02:46:14;;;;;;;7.78;6.90;;;;;;;;;;5113143;28;20492;-60
2023/06/14 02:48:43;;;;;;;10.57;6.80;;;;;;;;;;5109969;28;20079;-61
2023/06/14 02:51:09;;;;;;;8.23;6.88;;;;;;;;;;5112916;28;20416;-60
2023/06/14 02:53:36;;;;;;;8.35;7.07;;;;;;;;;;5113128;28;20047;-60
2023/06/14 02:56:03;;;;;;;7.93;7.00;;;;;;;;;;5113156;28;20377;-60
2023/06/14 02:58:30;;;;;;;7.13;6.43;;;;;;;;;;5112344;28;20051;-60
2023/06/14 03:00:57;;;;;;;6.38;5.78;;;;;;;;;;5112624;28;20441;-60
2023/06/14 03:03:24;;;;;;;8.68;6.80;;;;;;;;;;5112155;28;20051;-60
2023/06/14 03:05:54;;;;;;;8.20;6.25;;;;;;;;;;5113113;28;20052;-62
2023/06/14 03:08:21;;;;;;;;;;;;;;;;;;5113314;28;20051;-60
2023/06/14 03:10:48;;;;;;;8.32;5.97;;;;;;;;;;5112982;28;19927;-60
2023/06/14 03:13:15;;;;;;;7.55;6.60;;;;;;;;;;5112808;28;20059;-60
2023/06/14 03:15:44;;;;;;;8.82;6.60;;;;;;;;;;5111835;28;20415;-60
2023/06/14 03:18:11;;;;;;;9.25;6.28;;;;;;;;;;5112376;28;20047;-60
2023/06/14 03:20:38;;;;;;;7.22;6.07;;;;;;;;;;5112113;28;20055;-60
2023/06/14 03:23:06;;;;;;;7.20;6.38;;;;;;;;;;5114486;28;20515;-60
2023/06/14 03:25:35;;;;;;;7.00;6.30;;;;;;;;;;5116746;28;20063;-60
2023/06/14 03:28:05;;;;;;;8.85;6.78;;;;;;;;;;5116982;28;20053;-60
2023/06/14 03:30:32;;;;;;;8.55;6.70;;;;;;;;;;5114474;28;20421;-60
2023/06/14 03:33:00;;;;;;;8.07;6.70;;;;;;;;;;5116829;28;20424;-60
2023/06/14 03:35:28;;;;;;;8.25;6.38;;;;;;;;;;5115858;28;20062;-60
2023/06/14 03:37:54;;;;;;;8.68;6.93;;;;;;;;;;5116671;28;20055;-60
2023/06/14 03:40:26;;;;;;;6.78;5.93;;;;;;;;;;5115958;28;20235;-60
2023/06/14 03:42:53;;;;;;;6.95;6.03;;;;;;;;;;5116551;28;20059;-60
2023/06/14 03:45:20;;;;;;;7.63;6.32;;;;;;;;;;5116785;28;20055;-60
2023/06/14 03:47:47;;;;;;;6.88;6.10;;;;;;;;;;5116433;28;20130;-60
2023/06/14 03:50:15;;;;;;;7.47;5.65;;;;;;;;;;5115493;27;20051;-60
2023/06/14 03:52:43;;;;;;;8.88;6.22;;;;;;;;;;5116123;28;20052;-61
2023/06/14 03:55:10;;;;;;;8.45;5.97;;;;;;;;;;5116188;28;20073;-60
2023/06/14 03:57:38;;;;;;;8.38;6.38;;;;;;;;;;5116312;28;20058;-60
2023/06/14 04:00:06;;;;;;;6.68;5.95;;;;;;;;;;5115835;28;20055;-60
2023/06/14 04:02:33;;;;;;;7.18;6.35;;;;;;;;;;5115886;28;20051;-60
2023/06/14 04:04:59;;;;;;;7.53;5.85;;;;;;;;;;5115089;28;20044;-61
2023/06/14 04:07:28;;;;;;;6.53;5.88;;;;;;;;;;5115148;28;20065;-60
2023/06/14 04:09:55;;;;;;;7.20;6.50;;;;;;;;;;5116404;28;20377;-61
2023/06/14 04:12:22;;;;;;;7.10;5.85;;;;;;;;;;5116366;28;20846;-61
2023/06/14 04:14:50;;;;;;;7.72;5.90;;;;;;;;;;5115646;28;20052;-61
2023/06/14 04:17:17;;;;;;;7.75;5.97;;;;;;;;;;5105441;28;20501;-61
2023/06/14 04:19:44;;;;;;;8.00;6.05;;;;;;;;;;5100401;27;20047;-61
2023/06/14 04:22:11;;;;;;;8.65;6.80;;;;;;;;;;5115492;28;20075;-61
2023/06/14 04:24:38;;;;;;;7.45;6.13;;;;;;;;;;5115898;28;20055;-61
2023/06/14 04:27:06;;;;;;;9.98;6.38;;;;;;;;;;5114176;27;20408;-61
2023/06/14 04:29:33;;;;;;;7.55;6.60;;;;;;;;;;5115664;28;20130;-60
2023/06/14 04:32:01;;;;;;;9.00;6.25;;;;;;;;;;5115253;28;20052;-61
2023/06/14 04:34:33;;;;;;;8.23;5.80;;;;;;;;;;5116326;27;20047;-61
2023/06/14 04:37:01;;;;;;;8.23;5.95;;;;;;;;;;5103997;27;20578;-61
2023/06/14 04:39:27;;;;;;;8.35;6.05;;;;;;;;;;5115112;28;20070;-61
2023/06/14 04:41:56;;;;;;;7.53;5.63;;;;;;;;;;5115390;28;20054;-61
2023/06/14 04:44:29;;;;;;;8.37;5.43;;;;;;;;;;5112777;27;20052;-61
2023/06/14 04:46:58;;;;;;;7.85;6.05;;;;;;;;;;5114061;28;20051;-61
2023/06/14 04:49:27;;;;;;;7.22;5.80;;;;;;;;;;5104473;28;20044;-61
2023/06/14 04:51:59;;;;;;;8.00;5.90;;;;;;;;;;5095474;28;20059;-60
2023/06/14 04:54:25;;;;;;;9.55;6.18;;;;;;;;;;5094849;28;20056;-61
2023/06/14 04:56:53;;;;;;;8.32;6.78;;;;;;;;;;5094649;28;20052;-60
2023/06/14 04:59:19;;;;;;;7.78;6.43;;;;;;;;;;5095039;28;20048;-63
2023/06/14 05:01:48;;;;;;;7.47;5.85;;;;;;;;;;5074616;28;20064;-60
2023/06/14 05:04:16;;;;;;;8.43;6.10;;;;;;;;;;5092070;28;20052;-60
2023/06/14 05:06:44;;;;;;;8.00;6.05;;;;;;;;;;5093360;28;20056;-60
2023/06/14 05:09:11;;;;;;;8.30;5.57;;;;;;;;;;5094770;28;20044;-60
2023/06/14 05:11:38;;;;;;;10.80;6.00;;;;;;;;;;5093736;28;20060;-60
2023/06/14 05:14:06;;;;;;;8.35;4.78;;;;;;;;;;5094789;28;20051;-60
2023/06/14 05:16:32;;;;;;;11.45;5.28;;;;;;;;;;5094799;28;20057;-61
2023/06/14 05:18:59;;;;;;;7.13;4.82;;;;;;;;;;5093075;28;20404;-61
2023/06/14 05:21:26;;;;;;;6.53;4.18;;;;;;;;;;5092523;28;20056;-61
2023/06/14 05:23:55;;;;;;;5.60;4.68;;;;;;;;;;5093780;28;20069;-60
2023/06/14 05:26:23;;;;;;;4.93;3.97;;;;;;;;;;5093858;28;20067;-60
2023/06/14 05:28:52;;;;;;;5.75;4.20;;;;;;;;;;5103768;28;20044;-60
2023/06/14 05:31:19;;;;;;;6.88;3.95;;;;;;;;;;5101350;28;20048;-59
2023/06/14 05:33:46;;;;;;;5.47;4.32;;;;;;;;;;5094017;28;20052;-59
2023/06/14 05:36:13;;;;;;;6.78;4.57;;;;;;;;;;5092257;28;20052;-60
2023/06/14 05:38:40;;;;;;;5.05;3.88;;;;;;;;;;5093378;28;20071;-60
2023/06/14 05:41:08;;;;;;;6.07;4.22;;;;;;;;;;5089540;28;20052;-60
2023/06/14 05:43:35;;;;;;;6.07;3.78;;;;;;;;;;5091757;28;20361;-60
2023/06/14 05:46:02;;;;;;;7.28;3.65;;;;;;;;;;5086200;28;20489;-60
2023/06/14 05:48:29;;;;;;;6.13;3.85;;;;;;;;;;5080993;28;20086;-60
2023/06/14 05:50:56;;;;;;;5.28;3.90;;;;;;;;;;5090754;28;20482;-60
2023/06/14 05:53:23;;;;;;;5.95;3.55;;;;;;;;;;5088624;28;20512;-60
2023/06/14 05:55:51;;;;;;;5.10;3.72;;;;;;;;;;5088916;28;20048;-60
2023/06/14 05:58:19;;;;;;;5.03;3.90;;;;;;;;;;5089573;28;20055;-60
2023/06/14 06:00:46;;;;;;;4.93;3.92;;;;;;;;;;5090910;28;20059;-60
2023/06/14 06:03:13;;;;;;;6.07;3.42;;;;;;;;;;5089958;28;20044;-61
2023/06/14 06:05:40;;;;;;;7.25;3.70;;;;;;;;;;5088138;28;20408;-61
2023/06/14 06:08:07;;;;;;;5.28;3.53;;;;;;;;;;5086374;28;20055;-61
2023/06/14 06:10:34;;;;;;;5.32;3.70;;;;;;;;;;5084580;28;20052;-61
2023/06/14 06:13:01;;;;;;;6.65;3.58;;;;;;;;;;5089133;28;20052;-61
2023/06/14 06:15:29;;;;;;;5.15;3.55;;;;;;;;;;5098554;28;20503;-61
2023/06/14 06:17:56;;;;;;;4.90;3.33;;;;;;;;;;5108171;28;20048;-61
2023/06/14 06:20:27;;;;;;;6.28;3.80;;;;;;;;;;5086611;28;20963;-61
2023/06/14 06:22:55;;;;;;;5.68;3.47;;;;;;;;;;5091798;28;20420;-61
2023/06/14 06:25:22;;;;;;;4.38;3.33;;;;;;;;;;5091357;28;20054;-61
2023/06/14 06:27:49;;;;;;;7.30;3.28;;;;;;;;;;5091211;28;20052;-61
2023/06/14 06:30:15;;;;;;;4.22;2.95;;;;;;;;;;5100331;28;20054;-61
2023/06/14 06:32:43;;;;;;;6.95;2.80;;;;;;;;;;5113393;28;20058;-61
2023/06/14 06:35:12;;;;;;;4.47;3.00;;;;;;;;;;5106743;28;20051;-60
2023/06/14 06:37:39;;;;;;;4.80;2.80;;;;;;;;;;5104006;28;20058;-61
2023/06/14 06:40:07;;;;;;;3.70;2.60;;;;;;;;;;5112251;28;20048;-61
2023/06/14 06:42:34;;;;;;;5.30;2.92;;;;;;;;;;5112981;28;20060;-61
2023/06/14 06:45:01;;;;;;;9.88;3.28;;;;;;;;;;5112648;28;20052;-61
2023/06/14 06:47:28;;;;;;;4.75;2.70;;;;;;;;;;5112568;28;20052;-60
2023/06/14 06:49:56;;;;;;;6.07;2.60;;;;;;;;;;5107713;28;20492;-61
2023/06/14 06:52:23;;;;;;;4.32;2.65;;;;;;;;;;5112006;27;20051;-61
2023/06/14 06:54:54;;;;;;;4.90;2.60;;;;;;;;;;5112140;28;20060;-60
2023/06/14 06:57:22;;;;;;;5.38;3.05;;;;;;;;;;5110109;28;20416;-61
2023/06/14 06:59:49;;;;;;;4.13;2.58;;;;;;;;;;5104129;28;20062;-60
2023/06/14 07:02:16;;;;;;;5.03;2.50;;;;;;;;;;5105218;28;20047;-61
2023/06/14 07:04:43;;;;;;;7.28;2.30;;;;;;;;;;5098405;28;20480;-60
2023/06/14 07:07:11;;;;;;;6.53;2.30;;;;;;;;;;5097577;28;20063;-61
2023/06/14 07:09:38;;;;;;;2.70;2.05;;;;;;;;;;5098709;28;20063;-62
2023/06/14 07:12:05;;;;;;;4.88;2.10;;;;;;;;;;5102902;28;20098;-36
2023/06/14 07:14:32;;;;;;;3.00;2.10;;;;;;;;;;5104510;28;20051;-36
2023/06/14 07:16:59;;;;;;;4.38;2.30;;;;;;;;;;5095686;28;20055;-36
2023/06/14 07:19:26;;;;;;;3.67;2.25;;;;;;;;;;5099149;28;20039;-36
2023/06/14 07:21:52;;;;;;;3.08;2.13;;;;;;;;;;5103905;28;20407;-64
2023/06/14 07:24:22;;;;;;;2.50;2.10;;;;;;;;;;5101319;28;20051;-64
2023/06/14 07:26:49;;;;;;;3.47;2.03;;;;;;;;;;5102630;28;20052;-64
2023/06/14 07:29:16;;;;;;;3.45;2.10;;;;;;;;;;5099662;28;20051;-63
2023/06/14 07:31:43;;;;;;;4.22;2.33;;;;;;;;;;5099121;28;20051;-63
2023/06/14 07:34:10;;;;;;;4.25;1.95;;;;;;;;;;5109688;28;20480;-63
2023/06/14 07:36:37;;;;;;;3.70;1.88;;;;;;;;;;5097487;28;20064;-64
2023/06/14 07:39:06;;;;;;;5.07;2.25;;;;;;;;;;5101293;28;20052;-63
2023/06/14 07:41:34;;;;;;;3.45;1.92;;;;;;;;;;5091913;28;20047;-63
2023/06/14 07:44:01;;;;;;;4.78;1.95;;;;;;;;;;5103917;28;20059;-63
2023/06/14 07:46:28;;;;;;;4.60;2.30;;;;;;;;;;5093409;28;20052;-63
2023/06/14 07:48:54;;;;;;;6.18;1.92;;;;;;;;;;5101810;28;20054;-64
2023/06/14 07:51:23;;;;;;;2.42;1.95;;;;;;;;;;5108041;28;20070;-64
2023/06/14 07:53:49;;;;;;;3.08;2.17;;;;;;;;;;5104087;28;20067;-63
2023/06/14 07:56:16;;;;;;;4.93;1.95;;;;;;;;;;5113118;28;20051;-63
2023/06/14 07:58:44;;;;;;;3.70;2.20;;;;;;;;;;5106754;28;20056;-63
2023/06/14 08:01:12;;;;;;;3.75;2.00;;;;;;;;;;5111105;28;20066;-63
2023/06/14 08:03:39;;;;;;;2.80;2.00;;;;;;;;;;5113553;28;20052;-63
2023/06/14 08:06:07;;;;;;;4.20;1.83;;;;;;;;;;5104528;28;20051;-63
2023/06/14 08:08:34;;;;;;;5.05;2.25;;;;;;;;;;5123476;27;20392;-63
2023/06/14 08:11:01;;;;;;;4.00;1.75;;;;;;;;;;5107177;27;20055;-63
2023/06/14 08:13:28;;;;;;;2.75;1.98;;;;;;;;;;5112710;27;20062;-63
2023/06/14 08:15:57;;;;;;;4.18;1.85;;;;;;;;;;5108442;27;20052;-63
2023/06/14 08:18:23;;;;;;;;;;;;;;;;;;5115561;27;20062;-61
2023/06/14 08:20:51;;;;;;;3.55;1.70;;;;;;;;;;5105136;27;20395;-64
2023/06/14 08:23:20;;;;;;;3.67;1.67;;;;;;;;;;5109037;27;20051;-64
2023/06/14 08:25:47;;;;;;;;;;;;;;;;;;5112032;27;20145;-64
2023/06/14 08:28:14;;;;;;;7.75;2.15;;;;;;;;;;5116191;27;19920;-63
2023/06/14 08:30:42;;;;;;;4.15;2.20;;;;;;;;;;5112390;27;20411;-63
2023/06/14 08:33:10;;;;;;;4.10;1.90;;;;;;;;;;5111235;27;20062;-63
2023/06/14 08:35:39;;;;;;;3.50;1.55;;;;;;;;;;5114136;27;20062;-64
2023/06/14 08:38:06;;;;;;;4.40;1.95;;;;;;;;;;5116463;27;20063;-63
2023/06/14 08:40:37;;;;;;;2.00;1.70;;;;;;;;;;5118829;27;20048;-64
2023/06/14 08:43:04;;;;;;;4.43;1.73;;;;;;;;;;5118762;27;20435;-63
2023/06/14 08:45:31;;;;;;;3.08;1.60;;;;;;;;;;5121682;27;20064;-63
2023/06/14 08:47:59;;;;;;;2.30;1.60;;;;;;;;;;5104449;27;20056;-63
2023/06/14 08:50:29;;;;;;;3.08;1.52;;;;;;;;;;5089179;27;20044;-63
2023/06/14 08:53:00;;;;;;;4.10;1.40;;;;;;;;;;5082899;28;20060;-63
2023/06/14 08:55:28;;;;;;;1.92;1.50;;;;;;;;;;5077237;28;20059;-64
2023/06/14 08:57:55;;;;;;;2.95;1.48;;;;;;;;;;5080606;28;22121;-64
2023/06/14 09:00:24;;;;;;;3.15;1.40;;;;;;;;;;5080728;28;20044;-64
2023/06/14 09:02:55;;;;;;;2.42;1.52;;;;;;;;;;5084536;28;20493;-64
2023/06/14 09:05:23;;;;;;;3.33;1.50;;;;;;;;;;5074715;28;20059;-64
2023/06/14 09:07:52;;;;;;;1.90;1.40;;;;;;;;;;5082279;28;20052;-64
2023/06/14 09:10:21;;;;;;;2.22;1.50;;;;;;;;;;5084644;28;20051;-65
2023/06/14 09:12:48;;;;;;;3.95;1.33;;;;;;;;;;5084099;28;20056;-63
2023/06/14 09:15:15;;;;;;;2.15;1.30;;;;;;;;;;5078946;28;20039;-63
2023/06/14 09:17:42;;;;;;;4.07;1.55;;;;;;;;;;5077590;28;20059;-63
2023/06/14 09:20:10;;;;;;;1.67;1.23;;;;;;;;;;5084687;28;20060;-63
2023/06/14 09:22:37;;;;;;;;;;;;;;;;;;5078016;28;20055;-64
2023/06/14 09:25:05;;;;;;;2.35;1.27;;;;;;;;;;5075752;28;19928;-64
2023/06/14 09:27:33;;;;;;;2.85;1.58;;;;;;;;;;5073648;28;20060;-65
2023/06/14 09:30:00;;;;;;;2.67;1.50;;;;;;;;;;5081516;28;20491;-63
2023/06/14 09:32:26;;;;;;;3.07;1.30;;;;;;;;;;5078188;28;20054;-63
2023/06/14 09:34:53;;;;;;;2.38;1.40;;;;;;;;;;5084284;28;20064;-63
2023/06/14 09:37:30;;;;;;;2.83;1.23;;;;;;;;;;5079388;28;20055;-63
2023/06/14 09:39:57;;;;;;;2.10;1.10;;;;;;;;;;5079643;28;20045;-64
2023/06/14 09:42:26;;;;;;;2.95;0.95;;;;;;;;;;5072864;28;20055;-64
2023/06/14 09:44:53;;;;;;;2.78;1.30;;;;;;;;;;5085685;28;20052;-64
2023/06/14 09:47:20;;;;;;;1.60;1.00;;;;;;;;;;5090873;28;20058;-64
2023/06/14 09:49:47;;;;;;;4.15;1.38;;;;;;;;;;5102161;28;20055;-64
2023/06/14 09:52:15;;;;;;;2.08;1.25;;;;;;;;;;5109227;27;20052;-62
2023/06/14 09:54:42;;;;;;;1.23;1.10;;;;;;;;;;5109892;28;20063;-60
2023/06/14 09:57:10;;;;;;;1.83;1.30;;;;;;;;;;5111886;28;20054;-66
2023/06/14 09:59:41;;;;;;;3.03;1.23;;;;;;;;;;5110268;28;20052;-61
2023/06/14 10:02:12;;;;;;;3.45;1.33;;;;;;;;;;5108241;28;20058;-62
2023/06/14 10:04:40;;;;;;;3.00;1.25;;;;;;;;;;5111516;28;20468;-62
2023/06/14 10:07:07;;;;;;;1.50;1.05;;;;;;;;;;5111460;27;20047;-62
2023/06/14 10:09:35;;;;;;;2.85;1.10;;;;;;;;;;5110939;28;20051;-62
2023/06/14 10:12:01;;;;;;;;;;;;;;;;;;5113043;28;20062;-63
2023/06/14 10:14:28;;;;;;;1.83;1.15;;;;;;;;;;5110448;28;19920;-63
2023/06/14 10:16:59;;;;;;;1.80;1.00;;;;;;;;;;5117762;27;20050;-64
2023/06/14 10:19:34;;;;;;;1.33;0.93;;;;;;;;;;5118595;27;20074;-63
2023/06/14 10:22:02;;;;;;;1.50;1.20;;;;;;;;;;5109691;28;20484;-63
2023/06/14 10:24:31;;;;;;;1.13;1.02;;;;;;;;;;5111928;28;20051;-62
2023/06/14 10:26:59;;;;;;;2.85;1.23;;;;;;;;;;5107725;28;20054;-62
2023/06/14 10:29:25;;;;;;;2.70;1.10;;;;;;;;;;5107967;27;20487;-63
2023/06/14 10:31:58;;;;;;;4.22;1.23;;;;;;;;;;5112113;28;20066;-61
2023/06/14 10:34:27;;;;;;;1.65;1.10;;;;;;;;;;5113036;28;20058;-62
2023/06/14 10:37:04;;;;;;;1.88;1.10;;;;;;;;;;5109102;27;20074;-63
2023/06/14 10:39:31;;;;;;;2.55;1.30;;;;;;;;;;5104136;28;20496;-62
2023/06/14 10:41:58;;;;;;;4.55;1.23;;;;;;;;;;5105560;28;20055;-62
2023/06/14 10:44:34;;;;;;;3.15;1.30;;;;;;;;;;5106879;28;20385;-62
2023/06/14 10:47:01;;;;;;;1.50;1.20;;;;;;;;;;5107012;27;20052;-62
2023/06/14 10:49:44;;;;;;;2.10;1.40;;;;;;;;;;5106250;28;20523;-61
2023/06/14 10:52:20;;;;;;;1.90;1.40;;;;;;;;;;5104664;28;20377;-61
2023/06/14 10:55:05;;;;;;;1.90;1.30;;;;;;;;;;5106657;28;20040;-62
2023/06/14 10:57:33;;;;;;;1.70;1.45;;;;;;;;;;5103474;28;20527;-62
2023/06/14 11:00:00;;;;;;;3.10;1.45;;;;;;;;;;5104214;28;20058;-62
2023/06/14 11:02:42;;;;;;;1.88;1.60;;;;;;;;;;5103313;28;20051;-63
2023/06/14 11:05:14;;;;;;;2.00;1.58;;;;;;;;;;5069120;28;20496;-63
2023/06/14 11:07:47;;;;;;;4.22;1.50;;;;;;;;;;5102595;28;20055;-63
2023/06/14 11:10:21;;;;;;;2.45;1.45;;;;;;;;;;5105787;28;20048;-64
2023/06/14 11:12:49;;;;;;;3.05;1.60;;;;;;;;;;5109035;28;20051;-63
2023/06/14 11:15:15;;;;;;;2.22;1.40;;;;;;;;;;5105597;28;20539;-63
2023/06/14 11:17:50;;;;;;;5.75;1.90;;;;;;;;;;5110413;28;20052;-63
2023/06/14 11:20:20;;;;;;;3.03;1.40;;;;;;;;;;5106779;28;20451;-63
2023/06/14 11:22:52;;;;;;;3.33;1.38;;;;;;;;;;5109001;28;20484;-63
2023/06/14 11:25:19;;;;;;;2.60;1.70;;;;;;;;;;5108306;28;20062;-63
2023/06/14 11:27:46;;;;;;;2.85;1.35;;;;;;;;;;5110011;28;20051;-63
2023/06/14 11:30:14;;;;;;;3.78;1.48;;;;;;;;;;5108476;28;20051;-63
2023/06/14 11:32:40;;;;;;;2.63;1.55;;;;;;;;;;5104489;28;20106;-64
2023/06/14 11:35:08;;;;;;;3.30;1.50;;;;;;;;;;5110827;28;20408;-63
2023/06/14 11:37:37;;;;;;;2.38;1.48;;;;;;;;;;5109607;28;20059;-63
2023/06/14 11:40:08;;;;;;;3.88;1.67;;;;;;;;;;5112415;28;20523;-63
2023/06/14 11:42:35;;;;;;;1.98;1.60;;;;;;;;;;5112422;28;20723;-63
2023/06/14 11:45:03;;;;;;;;;;;;;;;;;;5116150;28;20055;-63
2023/06/14 11:47:32;;;;;;;2.28;1.63;;;;;;;;;;5115724;27;19935;-63
2023/06/14 11:49:59;;;;;;;2.92;1.50;;;;;;;;;;5116490;28;20056;-64
2023/06/14 11:52:26;;;;;;;;;;;;;;;;;;5116086;27;20070;-63
2023/06/14 11:54:54;;;;;;;3.78;1.88;;;;;;;;;;5115328;28;19934;-63
2023/06/14 11:57:21;;;;;;;3.38;1.75;;;;;;;;;;5115880;27;20059;-63
2023/06/14 11:59:48;;;;;;;2.95;1.50;;;;;;;;;;5115920;28;20062;-63
2023/06/14 12:02:15;;;;;;;2.38;1.65;;;;;;;;;;5116889;28;20056;-63
2023/06/14 12:04:42;;;;;;;4.90;1.88;;;;;;;;;;5116179;28;20051;-64
2023/06/14 12:07:14;;;;;;;2.58;2.05;;;;;;;;;;5116507;28;20051;-63
2023/06/14 12:09:43;;;;;;;2.78;1.60;;;;;;;;;;5114717;27;20056;-63
2023/06/14 12:12:12;;;;;;;4.18;1.70;;;;;;;;;;5115752;28;20504;-62
2023/06/14 12:14:42;;;;;;;3.20;1.65;;;;;;;;;;5114786;27;20058;-63
2023/06/14 12:17:09;;;;;;;1.90;1.60;;;;;;;;;;5116097;28;20055;-63
2023/06/14 12:19:42;;;;;;;4.05;1.70;;;;;;;;;;5115476;28;20407;-62
2023/06/14 12:22:10;;;;;;;2.65;1.55;;;;;;;;;;5116125;28;20070;-62
2023/06/14 12:24:37;;;;;;;3.22;1.52;;;;;;;;;;5116113;27;20070;-63
2023/06/14 12:27:04;;;;;;;4.13;1.52;;;;;;;;;;5116113;28;20055;-63
2023/06/14 12:29:33;;;;;;;3.30;1.70;;;;;;;;;;5115658;28;20052;-63
2023/06/14 12:32:00;;;;;;;3.75;1.45;;;;;;;;;;5115796;28;20043;-63
2023/06/14 12:34:27;;;;;;;2.20;1.63;;;;;;;;;;5113130;27;20177;-63
2023/06/14 12:36:54;;;;;;;2.47;1.70;;;;;;;;;;5115759;28;20489;-63
2023/06/14 12:39:21;;;;;;;2.00;1.50;;;;;;;;;;5114391;27;20043;-63
2023/06/14 12:41:48;;;;;;;3.00;1.50;;;;;;;;;;5114973;28;20047;-63
2023/06/14 12:44:15;;;;;;;2.90;1.80;;;;;;;;;;5114403;28;20404;-63
2023/06/14 12:46:44;;;;;;;3.00;1.58;;;;;;;;;;5115767;28;20056;-63
2023/06/14 12:49:11;;;;;;;3.25;1.60;;;;;;;;;;5115244;28;20058;-63
2023/06/14 12:51:38;;;;;;;4.13;1.73;;;;;;;;;;5114009;28;20048;-63
2023/06/14 12:54:05;;;;;;;3.10;1.80;;;;;;;;;;5111484;28;20412;-62
2023/06/14 12:56:32;;;;;;;2.72;1.80;;;;;;;;;;5106378;28;20481;-62
2023/06/14 12:58:59;;;;;;;2.55;1.45;;;;;;;;;;5095017;28;20055;-62
2023/06/14 13:01:39;;;;;;;3.55;1.85;;;;;;;;;;5108902;28;20066;-61
2023/06/14 13:04:07;;;;;;;4.55;1.70;;;;;;;;;;5115141;28;20055;-62
2023/06/14 13:06:34;;;;;;;2.80;1.90;;;;;;;;;;5114503;28;20054;-62
2023/06/14 13:09:01;;;;;;;4.57;1.70;;;;;;;;;;5109369;28;20051;-63
2023/06/14 13:11:28;;;;;;;2.07;1.47;;;;;;;;;;5114670;28;20044;-62
2023/06/14 13:13:55;;;;;;;3.10;1.60;;;;;;;;;;5114917;28;20469;-63
2023/06/14 13:16:21;;;;;;;4.63;1.90;;;;;;;;;;5112555;28;20058;-62
2023/06/14 13:18:48;;;;;;;3.40;1.70;;;;;;;;;;5114448;28;20047;-62
2023/06/14 13:21:16;;;;;;;6.30;1.60;;;;;;;;;;5114002;28;20055;-62
2023/06/14 13:23:43;;;;;;;;;;;;;;;;;;5105725;28;20047;-63
2023/06/14 13:26:10;;;;;;;3.00;1.70;;;;;;;;;;5114268;28;19986;-63
2023/06/14 13:28:37;;;;;;;3.20;1.70;;;;;;;;;;5114752;28;20165;-61
2023/06/14 13:31:03;;;;;;;5.28;1.80;;;;;;;;;;5113784;28;20052;-62
2023/06/14 13:33:32;;;;;;;3.47;1.85;;;;;;;;;;5107178;28;20052;-61
2023/06/14 13:36:00;;;;;;;3.08;1.63;;;;;;;;;;5114506;28;20052;-62
2023/06/14 13:38:29;;;;;;;2.30;1.80;;;;;;;;;;5111639;28;20062;-62
2023/06/14 13:40:56;;;;;;;3.58;1.75;;;;;;;;;;5114209;28;20508;-63
2023/06/14 13:43:22;;;;;;;3.17;1.73;;;;;;;;;;5114319;28;20070;-63
2023/06/14 14:13:20;;;;;;;4.72;2.03;;;;;;;;;;4730201;27;20432;-62
2023/06/14 14:15:48;;;;;;;4.43;1.88;;;;;;;;;;5093584;28;20052;-63
2023/06/14 14:18:20;;;;;;;3.00;1.70;;;;;;;;;;5098246;28;20501;-64
2023/06/14 14:20:47;;;;;;;1.90;1.42;;;;;;;;;;5093565;28;20056;-63
2023/06/14 14:23:14;;;;;;;4.22;1.80;;;;;;;;;;5093698;28;20052;-63
2023/06/14 14:25:41;;;;;;;2.55;1.83;;;;;;;;;;5091695;28;20063;-63
2023/06/14 14:28:08;;;;;;;3.53;2.17;;;;;;;;;;5092838;28;20435;-63
2023/06/14 14:30:39;;;;;;;2.55;1.83;;;;;;;;;;5093243;28;20055;-63
2023/06/14 14:33:06;;;;;;;2.03;1.60;;;;;;;;;;5089340;28;20048;-63
2023/06/14 14:35:33;;;;;;;4.82;1.98;;;;;;;;;;5013701;28;20397;-62
2023/06/14 14:38:00;;;;;;;2.60;1.77;;;;;;;;;;5087985;28;20055;-62
2023/06/14 14:40:27;;;;;;;2.42;1.77;;;;;;;;;;5079175;28;20067;-63
2023/06/14 14:42:54;;;;;;;3.05;1.88;;;;;;;;;;5089981;28;20124;-63
2023/06/14 14:45:21;;;;;;;3.25;2.95;;;;;;;;;;5072240;28;20060;-63
2023/06/14 14:47:49;;;;;;;5.55;2.10;;;;;;;;;;5069510;28;20505;-63
2023/06/14 14:50:16;;;;;;;4.70;2.47;;;;;;;;;;5070138;28;20072;-63
2023/06/14 14:52:43;;;;;;;2.78;2.10;;;;;;;;;;5088096;28;20048;-63
2023/06/14 14:55:10;;;;;;;3.88;1.98;;;;;;;;;;5075501;28;20056;-63
2023/06/14 14:57:37;;;;;;;2.63;1.80;;;;;;;;;;5070663;28;20409;-63
2023/06/14 15:00:05;;;;;;;3.63;2.00;;;;;;;;;;5077550;28;20508;-63
2023/06/14 15:02:32;;;;;;;3.92;2.08;;;;;;;;;;5074380;28;20421;-63
2023/06/14 15:05:00;;;;;;;3.15;1.98;;;;;;;;;;5082449;28;20404;-63
2023/06/14 15:07:27;;;;;;;4.88;1.95;;;;;;;;;;5089563;28;20496;-63
2023/06/14 15:09:55;;;;;;;3.45;2.05;;;;;;;;;;5088595;28;20055;-63
2023/06/14 15:12:22;;;;;;;3.20;1.88;;;;;;;;;;5072191;28;20053;-63
2023/06/14 15:14:50;;;;;;;3.60;1.90;;;;;;;;;;5088083;28;20063;-62
2023/06/14 15:17:17;;;;;;;3.00;2.07;;;;;;;;;;5092968;28;20485;-63